createdAt,value
2019-03-06T00:02:11.412Z,4.60
2019-03-06T00:04:41.165Z,4.60
2019-03-06T00:07:11.959Z,4.60
2019-03-06T00:09:41.846Z,4.60
2019-03-06T00:12:12.637Z,4.70
2019-03-06T00:14:42.739Z,4.60
2019-03-06T00:17:12.690Z,4.70
2019-03-06T00:19:42.510Z,4.70
2019-03-06T00:22:12.261Z,4.70
2019-03-06T00:24:42.008Z,4.70
2019-03-06T00:27:11.830Z,4.70
2019-03-06T00:29:41.563Z,4.70
2019-03-06T00:32:11.381Z,4.70
2019-03-06T00:34:41.129Z,4.70
2019-03-06T00:37:10.938Z,4.70
2019-03-06T00:39:47.934Z,4.60
2019-03-06T00:42:18.738Z,4.60
2019-03-06T00:44:48.474Z,4.50
2019-03-06T00:47:18.358Z,4.50
2019-03-06T00:49:48.427Z,4.50
2019-03-06T00:52:18.305Z,4.50
2019-03-06T00:54:48.116Z,4.50
2019-03-06T00:57:17.858Z,4.60
2019-03-06T00:59:47.875Z,4.50
2019-03-06T01:02:17.608Z,4.50
2019-03-06T01:04:47.493Z,4.50
2019-03-06T01:07:17.318Z,4.40
2019-03-06T01:09:47.058Z,4.50
2019-03-06T01:12:18.494Z,4.50
2019-03-06T01:14:48.304Z,4.40
2019-03-06T01:17:18.049Z,4.40
2019-03-06T01:19:47.854Z,4.40
2019-03-06T01:22:17.601Z,4.40
2019-03-06T01:24:47.401Z,4.40
2019-03-06T01:27:17.146Z,4.40
2019-03-06T01:29:46.881Z,4.40
2019-03-06T01:32:16.902Z,4.30
2019-03-06T01:35:13.934Z,4.30
2019-03-06T01:38:08.940Z,4.30
2019-03-06T01:41:06.657Z,4.30
2019-03-06T01:43:47.237Z,4.20
2019-03-06T01:46:17.338Z,4.20
2019-03-06T01:48:47.298Z,4.30
2019-03-06T01:51:17.210Z,4.40
2019-03-06T01:53:47.927Z,4.30
2019-03-06T01:56:17.721Z,4.30
2019-03-06T01:58:47.461Z,4.20
2019-03-06T02:01:17.350Z,4.20
2019-03-06T02:03:47.102Z,4.10
2019-03-06T02:06:17.349Z,4.20
2019-03-06T02:08:47.269Z,4.20
2019-03-06T02:11:17.082Z,4.20
2019-03-06T02:13:46.820Z,4.10
2019-03-06T02:16:16.878Z,4.00
2019-03-06T02:18:46.629Z,3.90
2019-03-06T02:21:16.518Z,3.80
2019-03-06T02:23:46.498Z,3.80
2019-03-06T02:26:16.238Z,3.80
2019-03-06T02:28:46.306Z,3.70
2019-03-06T02:31:16.126Z,3.50
2019-03-06T02:33:45.939Z,3.40
2019-03-06T02:36:16.218Z,3.20
2019-03-06T02:38:46.042Z,3.10
2019-03-06T02:41:15.860Z,3.10
2019-03-06T02:43:45.610Z,3.10
2019-03-06T02:46:15.422Z,3.10
2019-03-06T02:48:45.230Z,3.00
2019-03-06T02:51:15.042Z,3.00
2019-03-06T02:53:44.947Z,3.00
2019-03-06T02:56:14.938Z,2.90
2019-03-06T02:58:56.374Z,2.70
2019-03-06T03:01:45.177Z,2.80
2019-03-06T03:04:28.534Z,2.90
2019-03-06T03:07:01.416Z,2.90
2019-03-06T03:09:31.304Z,2.90
2019-03-06T03:12:01.052Z,2.90
2019-03-06T03:14:31.844Z,2.80
2019-03-06T03:17:01.726Z,2.80
2019-03-06T03:19:31.526Z,2.60
2019-03-06T03:22:01.759Z,2.60
2019-03-06T03:24:31.646Z,2.60
2019-03-06T03:27:01.379Z,2.50
2019-03-06T03:29:31.113Z,2.40
2019-03-06T03:32:00.850Z,2.40
2019-03-06T03:34:30.606Z,2.40
2019-03-06T03:37:00.480Z,2.50
2019-03-06T03:39:30.225Z,2.40
2019-03-06T03:42:00.334Z,2.40
2019-03-06T03:44:30.649Z,2.40
2019-03-06T03:47:00.750Z,2.40
2019-03-06T03:49:30.495Z,2.40
2019-03-06T03:52:00.302Z,2.40
2019-03-06T03:54:30.123Z,2.30
2019-03-06T03:57:00.027Z,2.30
2019-03-06T03:59:30.486Z,2.20
2019-03-06T04:02:00.363Z,2.20
2019-03-06T04:04:30.593Z,2.20
2019-03-06T04:07:00.407Z,2.30
2019-03-06T04:09:30.143Z,2.20
2019-03-06T04:12:00.319Z,2.10
2019-03-06T04:14:30.125Z,2.10
2019-03-06T04:16:59.954Z,2.00
2019-03-06T04:19:29.937Z,2.00
2019-03-06T04:21:59.770Z,1.90
2019-03-06T04:24:29.903Z,1.90
2019-03-06T04:26:59.826Z,2.00
2019-03-06T04:29:29.886Z,1.90
2019-03-06T04:31:59.707Z,1.90
2019-03-06T04:34:29.693Z,1.90
2019-03-06T04:36:59.634Z,2.00
2019-03-06T04:39:29.710Z,2.10
2019-03-06T04:41:59.452Z,2.00
2019-03-06T04:44:29.177Z,2.00
2019-03-06T04:46:59.079Z,1.90
2019-03-06T04:49:28.809Z,1.90
2019-03-06T04:51:58.637Z,1.90
2019-03-06T04:54:28.451Z,1.90
2019-03-06T04:56:58.190Z,1.90
2019-03-06T04:59:28.274Z,1.80
2019-03-06T05:01:58.098Z,1.80
2019-03-06T05:04:27.826Z,1.70
2019-03-06T05:06:57.557Z,1.70
2019-03-06T05:09:27.290Z,1.60
2019-03-06T05:11:57.222Z,1.50
2019-03-06T05:14:27.934Z,1.40
2019-03-06T05:17:12.170Z,1.40
2019-03-06T05:19:43.247Z,1.40
2019-03-06T05:22:13.457Z,1.30
2019-03-06T05:24:43.328Z,1.40
2019-03-06T05:27:13.269Z,1.20
2019-03-06T05:29:43.230Z,1.20
2019-03-06T05:32:33.368Z,1.30
2019-03-06T05:35:12.542Z,1.30
2019-03-06T05:38:07.064Z,1.30
2019-03-06T05:40:36.945Z,1.40
2019-03-06T05:43:06.779Z,1.40
2019-03-06T05:45:36.594Z,1.40
2019-03-06T05:48:06.490Z,1.50
2019-03-06T05:50:36.374Z,1.60
2019-03-06T05:53:06.214Z,1.80
2019-03-06T05:55:36.346Z,1.90
2019-03-06T05:58:06.422Z,2.00
2019-03-06T06:00:36.311Z,2.10
2019-03-06T06:03:06.205Z,2.20
2019-03-06T06:05:36.298Z,2.30
2019-03-06T06:08:06.197Z,2.40
2019-03-06T06:10:36.882Z,2.60
2019-03-06T06:13:07.097Z,2.70
2019-03-06T06:15:37.294Z,3.00
2019-03-06T06:18:07.422Z,3.10
2019-03-06T06:20:37.316Z,3.30
2019-03-06T06:23:14.722Z,3.50
2019-03-06T06:25:44.464Z,3.90
2019-03-06T06:28:14.210Z,4.50
2019-03-06T06:30:44.097Z,4.80
2019-03-06T06:33:13.842Z,5.10
2019-03-06T06:35:43.662Z,5.20
2019-03-06T06:38:13.482Z,5.60
2019-03-06T06:40:43.460Z,6.60
2019-03-06T06:43:13.274Z,7.20
2019-03-06T06:45:43.077Z,7.30
2019-03-06T06:48:14.480Z,6.70
2019-03-06T06:50:50.831Z,6.70
2019-03-06T06:53:35.381Z,7.30
2019-03-06T06:56:51.137Z,7.00
2019-03-06T06:59:42.905Z,7.00
2019-03-06T07:03:26.505Z,7.40
2019-03-06T07:06:03.053Z,7.40
2019-03-06T07:08:56.858Z,7.40
2019-03-06T07:11:52.195Z,8.40
2019-03-06T07:14:39.602Z,7.70
2019-03-06T07:17:31.610Z,8.50
2019-03-06T07:20:32.361Z,8.60
2019-03-06T07:23:09.887Z,8.40
2019-03-06T07:25:57.330Z,9.20
2019-03-06T07:28:40.369Z,8.90
2019-03-06T07:31:27.697Z,9.00
2019-03-06T07:34:16.769Z,9.30
2019-03-06T07:36:53.541Z,9.40
2019-03-06T07:39:32.340Z,10.20
2019-03-06T07:42:19.912Z,9.10
2019-03-06T07:46:06.382Z,9.70
2019-03-06T07:49:08.076Z,10.20
2019-03-06T07:51:57.101Z,10.50
2019-03-06T07:54:37.555Z,10.30
2019-03-06T07:57:38.613Z,10.70
2019-03-06T08:00:19.522Z,11.40
2019-03-06T08:03:37.244Z,12.40
2019-03-06T08:06:07.073Z,11.70
2019-03-06T08:08:36.956Z,13.00
2019-03-06T08:11:10.262Z,11.60
2019-03-06T08:13:51.358Z,11.70
2019-03-06T08:16:32.877Z,11.70
2019-03-06T08:19:24.046Z,12.30
2019-03-06T08:22:15.756Z,12.40
2019-03-06T08:25:01.826Z,12.60
2019-03-06T08:27:31.573Z,13.80
2019-03-06T08:30:01.574Z,14.50
2019-03-06T08:32:32.925Z,15.50
2019-03-06T08:35:02.858Z,15.00
2019-03-06T08:37:32.601Z,13.80
2019-03-06T08:40:02.434Z,13.50
2019-03-06T08:42:33.238Z,13.70
2019-03-06T08:45:04.213Z,14.40
2019-03-06T08:47:59.270Z,13.30
2019-03-06T08:50:54.271Z,12.30
2019-03-06T08:53:29.933Z,13.00
2019-03-06T08:56:04.787Z,14.40
2019-03-06T08:58:47.049Z,15.40
2019-03-06T09:01:42.702Z,16.10
2019-03-06T09:04:20.757Z,14.40
2019-03-06T09:06:55.183Z,15.00
2019-03-06T09:09:50.245Z,15.10
2019-03-06T09:12:25.606Z,16.80
2019-03-06T09:15:23.905Z,16.30
2019-03-06T09:18:11.402Z,15.40
2019-03-06T09:21:07.373Z,14.20
2019-03-06T09:23:45.494Z,16.70
2019-03-06T09:26:40.398Z,19.00
2019-03-06T09:29:29.050Z,18.70
2019-03-06T09:32:33.465Z,20.30
2019-03-06T09:35:21.150Z,20.50
2019-03-06T09:38:11.258Z,20.10
2019-03-06T09:40:50.274Z,18.70
2019-03-06T09:43:31.711Z,16.40
2019-03-06T09:46:13.309Z,14.90
2019-03-06T09:48:48.705Z,13.90
2019-03-06T09:51:36.338Z,13.70
2019-03-06T09:54:26.126Z,14.10
2019-03-06T09:57:18.033Z,15.50
2019-03-06T10:00:05.870Z,17.30
2019-03-06T10:02:56.355Z,19.10
2019-03-06T10:05:32.687Z,18.00
2019-03-06T10:08:18.278Z,16.60
2019-03-06T10:11:17.274Z,17.60
2019-03-06T10:14:15.397Z,18.00
2019-03-06T10:16:50.405Z,19.60
2019-03-06T10:19:41.857Z,19.80
2019-03-06T10:22:11.681Z,19.30
2019-03-06T10:24:41.430Z,20.10
2019-03-06T10:27:11.330Z,19.70
2019-03-06T10:29:41.150Z,18.50
2019-03-06T10:32:10.976Z,18.40
2019-03-06T10:34:40.869Z,18.90
2019-03-06T10:37:10.834Z,19.00
2019-03-06T10:39:40.889Z,19.40
2019-03-06T10:42:10.709Z,18.60
2019-03-06T10:44:40.694Z,18.60
2019-03-06T10:47:10.521Z,19.80
2019-03-06T10:49:40.457Z,19.80
2019-03-06T10:52:10.337Z,19.50
2019-03-06T10:54:44.720Z,19.70
2019-03-06T10:57:12.111Z,22.60
2019-03-06T10:59:42.445Z,21.50
2019-03-06T11:02:12.491Z,21.20
2019-03-06T11:05:05.335Z,21.90
2019-03-06T11:07:35.306Z,22.00
2019-03-06T11:10:06.429Z,20.10
2019-03-06T11:12:36.593Z,18.90
2019-03-06T11:15:09.010Z,21.10
2019-03-06T11:17:38.897Z,20.50
2019-03-06T11:20:11.830Z,19.00
2019-03-06T11:22:41.722Z,18.30
2019-03-06T11:25:12.126Z,18.30
2019-03-06T11:27:42.189Z,19.10
2019-03-06T11:30:23.492Z,20.30
2019-03-06T11:32:54.703Z,20.40
2019-03-06T11:35:25.171Z,21.40
2019-03-06T11:37:55.231Z,21.00
2019-03-06T11:40:25.121Z,21.60
2019-03-06T11:42:55.017Z,21.30
2019-03-06T11:45:24.930Z,21.10
2019-03-06T11:47:54.999Z,21.40
2019-03-06T11:50:24.977Z,20.50
2019-03-06T11:52:54.862Z,20.10
2019-03-06T11:55:25.558Z,19.50
2019-03-06T11:57:55.471Z,16.90
2019-03-06T12:00:40.366Z,16.30
2019-03-06T12:03:10.317Z,15.50
2019-03-06T12:05:40.490Z,15.60
2019-03-06T12:08:12.825Z,16.20
2019-03-06T12:10:42.973Z,16.50
2019-03-06T12:13:14.385Z,16.40
2019-03-06T12:15:47.421Z,16.50
2019-03-06T12:18:17.989Z,15.40
2019-03-06T12:20:48.248Z,14.80
2019-03-06T12:23:18.223Z,14.60
2019-03-06T12:25:48.141Z,15.10
2019-03-06T12:28:18.121Z,15.70
2019-03-06T12:30:48.325Z,16.00
2019-03-06T12:33:20.104Z,15.00
2019-03-06T12:35:49.993Z,14.20
2019-03-06T12:38:19.806Z,14.00
2019-03-06T12:40:50.777Z,14.30
2019-03-06T12:43:20.677Z,14.40
2019-03-06T12:46:23.566Z,14.60
2019-03-06T12:48:55.561Z,14.70
2019-03-06T12:51:25.782Z,14.70
2019-03-06T12:53:55.697Z,14.60
2019-03-06T12:56:25.685Z,13.90
2019-03-06T12:58:55.901Z,13.70
2019-03-06T13:01:25.867Z,13.90
2019-03-06T13:03:56.754Z,13.80
2019-03-06T13:06:26.691Z,13.80
2019-03-06T13:08:57.127Z,13.80
2019-03-06T13:11:27.359Z,13.40
2019-03-06T13:13:57.497Z,12.90
2019-03-06T13:16:27.442Z,12.70
2019-03-06T13:18:57.406Z,13.00
2019-03-06T13:21:27.318Z,13.20
2019-03-06T13:23:57.521Z,13.30
2019-03-06T13:26:27.278Z,13.20
2019-03-06T13:28:57.861Z,13.40
2019-03-06T13:31:27.686Z,13.70
2019-03-06T13:34:11.965Z,13.70
2019-03-06T13:36:42.676Z,13.80
2019-03-06T13:39:12.570Z,13.60
2019-03-06T13:41:42.484Z,13.40
2019-03-06T13:44:12.557Z,13.60
2019-03-06T13:46:42.530Z,14.00
2019-03-06T13:49:13.397Z,14.20
2019-03-06T13:51:43.389Z,14.10
2019-03-06T13:54:13.282Z,13.90
2019-03-06T13:56:43.259Z,13.60
2019-03-06T13:59:13.235Z,13.30
2019-03-06T14:01:43.285Z,13.60
2019-03-06T14:04:13.297Z,13.90
2019-03-06T14:06:43.122Z,14.40
2019-03-06T14:09:13.262Z,14.30
2019-03-06T14:11:43.425Z,14.80
2019-03-06T14:14:13.662Z,15.00
2019-03-06T14:16:43.475Z,14.90
2019-03-06T14:19:13.618Z,14.70
2019-03-06T14:21:43.505Z,14.50
2019-03-06T14:24:14.374Z,14.80
2019-03-06T14:26:44.333Z,15.30
2019-03-06T14:29:14.239Z,15.90
2019-03-06T14:31:44.198Z,16.00
2019-03-06T14:34:14.178Z,16.10
2019-03-06T14:36:44.071Z,16.00
2019-03-06T14:39:23.402Z,16.60
2019-03-06T14:41:53.433Z,17.20
2019-03-06T14:44:23.442Z,18.40
2019-03-06T14:46:53.582Z,18.30
2019-03-06T14:49:23.982Z,18.00
2019-03-06T14:51:55.242Z,16.90
2019-03-06T14:54:25.282Z,16.70
2019-03-06T14:56:56.617Z,16.00
2019-03-06T14:59:26.621Z,15.90
2019-03-06T15:01:56.781Z,15.70
2019-03-06T15:04:27.272Z,14.90
2019-03-06T15:06:57.259Z,14.80
2019-03-06T15:09:28.275Z,14.10
2019-03-06T15:11:58.445Z,14.10
2019-03-06T15:14:35.709Z,14.30
2019-03-06T15:16:59.718Z,14.10
2019-03-06T15:19:29.545Z,13.80
2019-03-06T15:21:59.353Z,13.60
2019-03-06T15:24:29.246Z,13.40
2019-03-06T15:26:59.353Z,13.30
2019-03-06T15:29:29.441Z,13.40
2019-03-06T15:31:59.344Z,13.30
2019-03-06T15:34:29.425Z,12.90
2019-03-06T15:36:59.306Z,12.80
2019-03-06T15:39:44.516Z,12.60
2019-03-06T15:42:12.558Z,12.70
2019-03-06T15:44:42.794Z,12.70
2019-03-06T15:47:12.606Z,12.50
2019-03-06T15:49:42.760Z,12.50
2019-03-06T15:52:12.921Z,12.40
2019-03-06T15:54:42.987Z,12.30
2019-03-06T15:57:12.889Z,12.10
2019-03-06T15:59:42.955Z,12.10
2019-03-06T16:02:12.865Z,12.10
2019-03-06T16:04:42.786Z,12.00
2019-03-06T16:07:12.729Z,12.00
2019-03-06T16:09:42.714Z,11.90
2019-03-06T16:12:12.712Z,11.80
2019-03-06T16:14:43.173Z,11.90
2019-03-06T16:17:13.044Z,11.70
2019-03-06T16:19:43.106Z,11.70
2019-03-06T16:22:13.870Z,11.60
2019-03-06T16:24:43.879Z,11.50
2019-03-06T16:27:13.770Z,11.30
2019-03-06T16:29:43.854Z,11.20
2019-03-06T16:32:13.671Z,11.20
2019-03-06T16:34:43.565Z,11.00
2019-03-06T16:37:13.373Z,10.90
2019-03-06T16:39:43.132Z,10.80
2019-03-06T16:42:13.135Z,10.70
2019-03-06T16:44:43.185Z,10.70
2019-03-06T16:47:13.248Z,10.60
2019-03-06T16:49:43.678Z,10.50
2019-03-06T16:52:13.565Z,10.30
2019-03-06T16:54:43.744Z,10.20
2019-03-06T16:57:13.640Z,10.00
2019-03-06T16:59:43.663Z,9.90
2019-03-06T17:02:13.825Z,9.80
2019-03-06T17:04:43.726Z,9.70
2019-03-06T17:07:13.727Z,9.60
2019-03-06T17:09:43.982Z,9.50
2019-03-06T17:12:15.245Z,9.40
2019-03-06T17:14:45.262Z,9.30
2019-03-06T17:17:15.162Z,9.20
2019-03-06T17:19:45.266Z,9.20
2019-03-06T17:22:15.531Z,9.20
2019-03-06T17:24:46.202Z,9.10
2019-03-06T17:27:16.078Z,9.10
2019-03-06T17:29:46.032Z,9.00
2019-03-06T17:32:16.209Z,8.90
2019-03-06T17:34:46.186Z,8.80
2019-03-06T17:37:16.122Z,8.70
2019-03-06T17:39:45.969Z,8.70
2019-03-06T17:42:16.474Z,8.50
2019-03-06T17:44:46.433Z,8.40
2019-03-06T17:47:16.702Z,8.40
2019-03-06T17:49:46.521Z,8.40
2019-03-06T17:52:17.320Z,8.30
2019-03-06T17:54:47.450Z,8.30
2019-03-06T17:57:17.417Z,8.20
2019-03-06T17:59:47.161Z,8.30
2019-03-06T18:02:17.134Z,8.40
2019-03-06T18:04:47.022Z,8.40
2019-03-06T18:07:16.925Z,8.40
2019-03-06T18:09:46.969Z,8.30
2019-03-06T18:12:16.808Z,8.20
2019-03-06T18:14:46.625Z,8.20
2019-03-06T18:17:16.458Z,8.10
2019-03-06T18:19:46.286Z,8.00
2019-03-06T18:22:16.821Z,8.00
2019-03-06T18:24:46.797Z,7.90
2019-03-06T18:27:25.906Z,8.00
2019-03-06T18:29:49.780Z,8.00
2019-03-06T18:32:20.039Z,7.90
2019-03-06T18:34:50.022Z,7.90
2019-03-06T18:37:20.391Z,7.80
2019-03-06T18:39:50.745Z,7.70
2019-03-06T18:42:20.863Z,7.80
2019-03-06T18:44:51.118Z,7.70
2019-03-06T18:47:20.987Z,7.60
2019-03-06T18:49:51.273Z,7.50
2019-03-06T18:52:21.363Z,7.70
2019-03-06T18:54:51.359Z,7.90
2019-03-06T18:57:21.791Z,7.90
2019-03-06T18:59:51.721Z,8.10
2019-03-06T19:02:21.604Z,8.30
2019-03-06T19:04:51.713Z,8.30
2019-03-06T19:07:21.581Z,8.30
2019-03-06T19:09:52.430Z,8.40
2019-03-06T19:12:23.389Z,8.40
2019-03-06T19:14:53.365Z,8.40
2019-03-06T19:17:23.226Z,8.40
2019-03-06T19:19:53.098Z,8.50
2019-03-06T19:22:23.995Z,8.40
2019-03-06T19:24:54.324Z,8.40
2019-03-06T19:27:24.153Z,8.40
2019-03-06T19:29:53.918Z,8.40
2019-03-06T19:32:24.385Z,8.40
2019-03-06T19:34:54.237Z,8.30
2019-03-06T19:37:24.343Z,8.40
2019-03-06T19:39:54.487Z,8.50
2019-03-06T19:42:24.338Z,8.50
2019-03-06T19:44:54.106Z,8.50
2019-03-06T19:47:24.186Z,8.40
2019-03-06T19:49:54.205Z,8.30
2019-03-06T19:52:24.037Z,8.30
2019-03-06T19:54:53.862Z,8.40
2019-03-06T19:57:23.902Z,8.30
2019-03-06T19:59:54.317Z,8.30
2019-03-06T20:02:24.282Z,8.30
2019-03-06T20:04:54.198Z,8.20
2019-03-06T20:07:25.098Z,8.20
2019-03-06T20:09:55.048Z,8.20
2019-03-06T20:12:24.965Z,8.20
2019-03-06T20:14:55.098Z,8.10
2019-03-06T20:17:25.034Z,8.10
2019-03-06T20:19:54.870Z,8.10
2019-03-06T20:22:24.730Z,8.00
2019-03-06T20:24:54.657Z,8.00
2019-03-06T20:27:24.612Z,7.90
2019-03-06T20:29:54.634Z,8.00
2019-03-06T20:32:24.533Z,8.00
2019-03-06T20:34:54.589Z,8.00
2019-03-06T20:37:24.562Z,8.00
2019-03-06T20:39:54.380Z,8.00
2019-03-06T20:42:24.357Z,7.90
2019-03-06T20:44:55.498Z,7.80
2019-03-06T20:47:25.289Z,7.70
2019-03-06T20:49:55.034Z,7.60
2019-03-06T20:52:24.794Z,7.60
2019-03-06T20:54:54.539Z,7.50
2019-03-06T20:57:24.445Z,7.50
2019-03-06T20:59:54.573Z,7.30
2019-03-06T21:02:24.486Z,7.30
2019-03-06T21:04:54.646Z,7.20
2019-03-06T21:07:24.810Z,7.20
2019-03-06T21:09:55.021Z,7.10
2019-03-06T21:12:26.002Z,7.10
2019-03-06T21:14:56.185Z,7.10
2019-03-06T21:17:25.969Z,7.00
2019-03-06T21:19:55.825Z,6.90
2019-03-06T21:22:25.843Z,6.60
2019-03-06T21:24:55.611Z,6.40
2019-03-06T21:27:25.510Z,6.30
2019-03-06T21:29:55.259Z,6.00
2019-03-06T21:32:25.353Z,5.80
2019-03-06T21:34:55.249Z,5.60
2019-03-06T21:37:25.107Z,5.50
2019-03-06T21:39:56.502Z,5.40
2019-03-06T21:42:26.749Z,5.40
2019-03-06T21:44:56.723Z,5.30
2019-03-06T21:47:26.762Z,5.20
2019-03-06T21:49:56.853Z,5.20
2019-03-06T21:52:26.726Z,5.20
2019-03-06T21:54:56.485Z,5.20
2019-03-06T21:57:26.372Z,5.10
2019-03-06T21:59:56.204Z,5.10
2019-03-06T22:02:26.291Z,5.10
2019-03-06T22:04:56.024Z,5.10
2019-03-06T22:07:25.900Z,5.10
2019-03-06T22:09:55.642Z,5.00
2019-03-06T22:12:25.538Z,5.00
2019-03-06T22:14:55.535Z,5.00
2019-03-06T22:17:25.350Z,5.00
2019-03-06T22:19:55.093Z,4.90
2019-03-06T22:22:24.909Z,4.90
2019-03-06T22:24:54.655Z,4.90
2019-03-06T22:27:24.618Z,4.90
2019-03-06T22:29:54.637Z,4.90
2019-03-06T22:32:24.458Z,4.90
2019-03-06T22:34:54.207Z,4.80
2019-03-06T22:37:24.093Z,4.90
2019-03-06T22:39:55.489Z,4.90
2019-03-06T22:42:25.477Z,4.90
2019-03-06T22:44:55.473Z,4.80
2019-03-06T22:47:25.358Z,4.80
2019-03-06T22:49:55.185Z,4.80
2019-03-06T22:52:24.935Z,4.80
2019-03-06T22:54:54.669Z,4.80
2019-03-06T22:57:24.751Z,4.80
2019-03-06T22:59:54.627Z,4.80
2019-03-06T23:02:25.055Z,4.80
2019-03-06T23:04:56.155Z,4.80
2019-03-06T23:07:25.978Z,4.70
2019-03-06T23:09:55.794Z,4.70
2019-03-06T23:12:25.616Z,4.70
2019-03-06T23:14:55.374Z,4.60
2019-03-06T23:17:25.221Z,4.50
2019-03-06T23:19:55.378Z,4.50
2019-03-06T23:22:25.262Z,4.50
2019-03-06T23:24:55.234Z,4.40
2019-03-06T23:27:25.166Z,4.30
2019-03-06T23:29:55.001Z,4.30
2019-03-06T23:32:24.805Z,4.20
2019-03-06T23:34:54.618Z,4.10
2019-03-06T23:37:24.783Z,4.20
2019-03-06T23:39:54.585Z,4.30
2019-03-06T23:42:24.742Z,4.30
2019-03-06T23:44:54.616Z,4.30
2019-03-06T23:47:24.515Z,4.40
2019-03-06T23:49:54.246Z,4.50
2019-03-06T23:52:34.722Z,4.50
2019-03-06T23:55:04.761Z,4.50
2019-03-06T23:57:35.058Z,4.50
